createdAt,value
2022-09-28T00:01:30.696Z,101217.25
2022-09-28T00:04:00.659Z,101221.56
2022-09-28T00:06:32.689Z,101221.69
2022-09-28T00:09:02.930Z,101219.06
2022-09-28T00:11:31.450Z,101224.56
2022-09-28T00:14:04.420Z,101218.31
2022-09-28T00:16:36.574Z,101211.97
2022-09-28T00:19:06.029Z,101217.34
2022-09-28T00:21:37.333Z,101211.97
2022-09-28T00:24:13.524Z,101218.00
2022-09-28T00:26:48.179Z,101214.34
2022-09-28T00:29:37.190Z,101215.97
2022-09-28T00:32:11.590Z,101207.78
2022-09-28T00:34:42.291Z,101207.88
2022-09-28T00:37:11.602Z,101208.63
2022-09-28T00:39:42.331Z,101207.66
2022-09-28T00:42:15.450Z,101217.25
2022-09-28T00:44:47.591Z,101212.66
2022-09-28T00:47:35.249Z,101217.63
2022-09-28T00:50:11.935Z,101217.13
2022-09-28T00:52:57.687Z,101213.16
2022-09-28T00:55:49.545Z,101210.09
2022-09-28T00:58:26.810Z,101216.94
2022-09-28T01:00:57.832Z,101219.69
2022-09-28T01:03:28.094Z,101217.81
2022-09-28T01:05:59.770Z,101222.69
2022-09-28T01:08:30.650Z,101233.69
2022-09-28T01:11:00.895Z,101234.03
2022-09-28T01:13:32.447Z,101235.69
2022-09-28T01:16:09.098Z,101227.50
2022-09-28T01:19:14.291Z,101225.59
2022-09-28T01:21:59.304Z,101234.16
2022-09-28T01:24:42.175Z,101228.09
2022-09-28T01:27:53.374Z,101226.63
2022-09-28T01:30:23.374Z,101229.72
2022-09-28T01:33:23.744Z,101232.75
2022-09-28T01:35:55.675Z,101242.88
2022-09-28T01:38:29.990Z,101240.47
2022-09-28T01:41:00.490Z,101242.59
2022-09-28T01:43:30.910Z,101246.34
2022-09-28T01:46:15.501Z,101250.47
2022-09-28T01:48:58.181Z,101241.47
2022-09-28T01:52:01.977Z,101245.94
2022-09-28T01:54:44.245Z,101241.78
2022-09-28T01:57:48.091Z,101246.66
2022-09-28T02:00:19.129Z,101241.63
2022-09-28T02:03:01.684Z,101243.78
2022-09-28T02:05:37.009Z,101250.59
2022-09-28T02:08:08.989Z,101251.09
2022-09-28T02:10:44.056Z,101248.72
2022-09-28T02:13:44.075Z,101251.59
2022-09-28T02:16:33.541Z,101250.03
2022-09-28T02:19:02.589Z,101253.81
2022-09-28T02:21:39.152Z,101255.81
2022-09-28T02:24:23.126Z,101251.66
2022-09-28T02:26:53.205Z,101259.09
2022-09-28T02:29:21.526Z,101261.00
2022-09-28T02:31:50.374Z,101258.66
2022-09-28T02:34:18.910Z,101262.44
2022-09-28T02:36:48.768Z,101261.66
2022-09-28T02:39:18.926Z,101259.09
2022-09-28T02:41:52.882Z,101261.81
2022-09-28T02:44:43.837Z,101268.31
2022-09-28T02:47:42.956Z,101280.19
2022-09-28T02:50:51.390Z,101270.72
2022-09-28T02:53:39.605Z,101272.69
2022-09-28T02:56:35.401Z,101275.56
2022-09-28T02:59:18.464Z,101280.28
2022-09-28T03:02:23.816Z,101281.41
2022-09-28T03:05:13.446Z,101285.97
2022-09-28T03:07:54.160Z,101294.88
2022-09-28T03:10:45.053Z,101289.13
2022-09-28T03:13:15.000Z,101294.88
2022-09-28T03:15:48.567Z,101290.59
2022-09-28T03:18:18.006Z,101289.97
2022-09-28T03:20:46.329Z,101296.28
2022-09-28T03:23:29.681Z,101300.78
2022-09-28T03:25:58.062Z,101301.66
2022-09-28T03:28:26.965Z,101304.16
2022-09-28T03:30:56.073Z,101311.28
2022-09-28T03:33:24.850Z,101314.75
2022-09-28T03:35:53.207Z,101321.81
2022-09-28T03:38:22.169Z,101315.69
2022-09-28T03:41:01.214Z,101322.94
2022-09-28T03:43:31.709Z,101319.38
2022-09-28T03:46:01.973Z,101318.53
2022-09-28T03:48:33.605Z,101332.06
2022-09-28T03:51:05.369Z,101334.94
2022-09-28T03:53:34.975Z,101330.56
2022-09-28T03:56:12.893Z,101330.66
2022-09-28T03:58:41.515Z,101332.56
2022-09-28T04:01:17.817Z,101336.16
2022-09-28T04:03:54.270Z,101337.13
2022-09-28T04:06:23.237Z,101337.97
2022-09-28T04:08:51.589Z,101348.78
2022-09-28T04:11:19.929Z,101347.84
2022-09-28T04:13:51.442Z,101350.66
2022-09-28T04:16:20.588Z,101346.41
2022-09-28T04:18:49.499Z,101355.56
2022-09-28T04:21:23.086Z,101351.28
2022-09-28T04:23:51.388Z,101348.75
2022-09-28T04:26:25.366Z,101354.19
2022-09-28T04:29:12.671Z,101346.28
2022-09-28T04:31:52.143Z,101350.78
2022-09-28T04:34:23.108Z,101354.63
2022-09-28T04:36:52.170Z,101357.41
2022-09-28T04:39:20.551Z,101361.91
2022-09-28T04:41:50.287Z,101361.16
2022-09-28T04:44:18.790Z,101364.78
2022-09-28T04:46:47.154Z,101368.34
2022-09-28T04:49:15.678Z,101369.34
2022-09-28T04:51:44.082Z,101369.44
2022-09-28T04:54:12.509Z,101377.50
2022-09-28T04:56:40.880Z,101374.84
2022-09-28T04:59:09.345Z,101371.47
2022-09-28T05:01:37.984Z,101374.34
2022-09-28T05:04:06.335Z,101380.72
2022-09-28T05:06:34.659Z,101372.84
2022-09-28T05:09:03.280Z,101381.78
2022-09-28T05:11:31.750Z,101383.59
2022-09-28T05:14:00.106Z,101384.56
2022-09-28T05:16:30.263Z,101388.19
2022-09-28T05:18:58.965Z,101392.72
2022-09-28T05:21:29.037Z,101389.16
2022-09-28T05:23:59.249Z,101387.53
2022-09-28T05:26:27.595Z,101386.78
2022-09-28T05:28:56.069Z,101386.84
2022-09-28T05:31:24.434Z,101388.69
2022-09-28T05:33:53.042Z,101387.91
2022-09-28T05:36:21.692Z,101384.41
2022-09-28T05:38:50.021Z,101386.41
2022-09-28T05:41:18.331Z,101391.00
2022-09-28T05:43:46.648Z,101388.41
2022-09-28T05:46:15.646Z,101399.91
2022-09-28T05:48:44.091Z,101400.84
2022-09-28T05:51:13.006Z,101403.78
2022-09-28T05:53:41.350Z,101408.44
2022-09-28T05:56:09.669Z,101397.00
2022-09-28T05:58:37.919Z,101394.31
2022-09-28T06:01:06.327Z,101400.66
2022-09-28T06:03:34.650Z,101395.47
2022-09-28T06:06:06.154Z,101398.94
2022-09-28T06:08:34.635Z,101398.94
2022-09-28T06:11:03.929Z,101405.34
2022-09-28T06:13:33.007Z,101405.44
2022-09-28T06:16:02.055Z,101402.69
2022-09-28T06:18:30.339Z,101409.84
2022-09-28T06:20:59.251Z,101406.22
2022-09-28T06:23:27.609Z,101410.78
2022-09-28T06:25:55.901Z,101411.66
2022-09-28T06:28:24.391Z,101411.66
2022-09-28T06:30:52.920Z,101410.72
2022-09-28T06:33:21.505Z,101415.28
2022-09-28T06:35:49.866Z,101411.94
2022-09-28T06:38:18.165Z,101420.03
2022-09-28T06:40:46.649Z,101418.44
2022-09-28T06:43:16.449Z,101421.22
2022-09-28T06:45:45.259Z,101422.44
2022-09-28T06:48:15.932Z,101420.75
2022-09-28T06:50:44.405Z,101420.88
2022-09-28T06:53:14.863Z,101431.75
2022-09-28T06:55:51.124Z,101427.34
2022-09-28T06:58:21.890Z,101431.78
2022-09-28T07:00:52.724Z,101430.13
2022-09-28T07:03:23.324Z,101419.53
2022-09-28T07:05:56.759Z,101424.09
2022-09-28T07:08:27.199Z,101421.44
2022-09-28T07:10:58.784Z,101414.28
2022-09-28T07:16:26.422Z,101419.75
2022-09-28T07:18:55.296Z,101422.41
2022-09-28T07:21:29.935Z,101418.88
2022-09-28T07:23:59.151Z,101417.88
2022-09-28T07:26:27.449Z,101419.69
2022-09-28T07:28:56.725Z,101416.19
2022-09-28T07:31:26.166Z,101415.41
2022-09-28T07:33:54.790Z,101417.25
2022-09-28T07:36:23.765Z,101426.34
2022-09-28T07:38:52.130Z,101424.59
2022-09-28T07:41:33.113Z,101427.28
2022-09-28T07:44:07.391Z,101427.44
2022-09-28T07:46:36.737Z,101427.44
2022-09-28T07:49:11.421Z,101426.50
2022-09-28T07:51:40.779Z,101428.50
2022-09-28T07:54:09.045Z,101420.50
2022-09-28T07:56:38.195Z,101419.66
2022-09-28T07:59:06.495Z,101420.47
2022-09-28T08:01:34.990Z,101419.59
2022-09-28T08:04:03.447Z,101412.44
2022-09-28T08:06:32.410Z,101413.44
2022-09-28T08:09:02.771Z,101408.16
2022-09-28T08:11:31.126Z,101411.00
2022-09-28T08:14:01.144Z,101406.63
2022-09-28T08:16:29.942Z,101415.47
2022-09-28T08:18:58.336Z,101411.94
2022-09-28T08:21:45.049Z,101418.19
2022-09-28T08:24:18.899Z,101412.91
2022-09-28T08:26:48.085Z,101422.75
2022-09-28T08:29:17.855Z,101425.59
2022-09-28T08:31:49.521Z,101418.53
2022-09-28T08:34:18.404Z,101424.84
2022-09-28T08:36:46.805Z,101431.13
2022-09-28T08:39:15.120Z,101433.91
2022-09-28T08:41:43.430Z,101435.91
2022-09-28T08:44:24.870Z,101436.84
2022-09-28T08:47:00.928Z,101438.78
2022-09-28T08:49:46.147Z,101431.69
2022-09-28T08:52:24.250Z,101446.84
2022-09-28T08:55:01.809Z,101437.03
2022-09-28T08:57:47.119Z,101436.94
2022-09-28T09:00:23.125Z,101435.19
2022-09-28T09:02:51.793Z,101438.78
2022-09-28T09:05:25.616Z,101431.69
2022-09-28T09:08:12.796Z,101444.25
2022-09-28T09:10:59.228Z,101446.09
2022-09-28T09:14:13.583Z,101443.56
2022-09-28T09:17:13.338Z,101454.38
2022-09-28T09:19:56.092Z,101450.06
2022-09-28T09:22:37.210Z,101445.75
2022-09-28T09:25:27.765Z,101451.25
2022-09-28T09:28:36.245Z,101455.78
2022-09-28T09:31:41.330Z,101455.91
2022-09-28T09:34:33.534Z,101457.06
2022-09-28T09:37:11.253Z,101457.31
2022-09-28T09:39:51.780Z,101446.72
2022-09-28T09:42:36.565Z,101452.22
2022-09-28T09:45:04.829Z,101454.91
2022-09-28T09:47:46.760Z,101457.72
2022-09-28T09:50:30.982Z,101464.97
2022-09-28T09:53:08.090Z,101458.00
2022-09-28T09:55:43.769Z,101459.97
2022-09-28T09:58:30.722Z,101455.56
2022-09-28T10:01:22.207Z,101461.81
2022-09-28T10:03:52.301Z,101451.38
2022-09-28T10:06:33.490Z,101445.25
2022-09-28T10:09:06.538Z,101448.94
2022-09-28T10:11:45.206Z,101445.41
2022-09-28T10:14:25.050Z,101441.06
2022-09-28T10:16:56.837Z,101434.91
2022-09-28T10:19:44.934Z,101422.50
2022-09-28T10:22:19.126Z,101420.81
2022-09-28T10:24:57.788Z,101418.25
2022-09-28T10:27:37.843Z,101418.31
2022-09-28T10:30:12.334Z,101410.34
2022-09-28T10:32:41.358Z,101420.16
2022-09-28T10:35:23.573Z,101418.53
2022-09-28T10:38:08.369Z,101431.13
2022-09-28T10:41:02.822Z,101424.16
2022-09-28T10:43:39.986Z,101413.56
2022-09-28T10:46:16.771Z,101410.03
2022-09-28T10:48:54.004Z,101403.94
2022-09-28T10:51:40.711Z,101405.03
2022-09-28T10:54:20.405Z,101398.94
2022-09-28T10:56:50.327Z,101399.88
2022-09-28T10:59:31.919Z,101391.16
2022-09-28T11:02:18.246Z,101385.03
2022-09-28T11:04:53.620Z,101384.19
2022-09-28T11:07:26.309Z,101391.47
2022-09-28T11:09:56.700Z,101383.50
2022-09-28T11:12:44.675Z,101387.19
2022-09-28T11:15:20.234Z,101383.72
2022-09-28T11:17:49.009Z,101389.13
2022-09-28T11:20:28.535Z,101371.47
2022-09-28T11:23:21.519Z,101374.16
